首页
METAR-TAF:

METAR-TAF

机场 :

Waddington, 英格兰

纬度: 53-10N, 经度: 000-31W, 海拔: 68米

当前天气观测

该预报发布于33分钟前的00:50 UTC
风速7节,风向西南
温度 7°C
湿度 87%
气压 1005 hPa
能见度10公里或以上

METAR: EGXW 170050Z AUTO 22007KT 9999 NCD 07/05 Q1005

时间: 02:23 (01:23 UTC)

预报

该预报发布于5小时和57分钟前的19:26 UTC
预报有效从16日的 21点(UTC)到 17日的 15点(UTC)
风速6节,风向西南
能见度10公里或以上
少量云层高于4000英尺
几率 30%
从 17日的 04点(UTC)到 17日的 07点(UTC)
能見度: 7000
轻雾

TAF: EGXW 161926Z 1621/1715 22006KT 9999 FEW040 PROB30 1704/1707 7000 BR

超过4000个机场的气象观测和天气预报(METAR&TAF报告)。

可查询的气象台以黄色和红色小点在地图上表示。

将鼠标移到小点上方,可查看气象台名称。

然后点击查看天气观测和预报。

如需切换地图:点击带黑十字的绿色按钮放大地图;点击带横线的绿色按钮缩小地图;或者点击绿色箭头查看邻近地区的地图。


METAR-TAF: